Time;durP1;ratioP1;P1;durP2;ratioP2;P2;SDS_P1;SDS_P2;PMS_P1;PMS_P2;Temp;Humidity;BMP_temperature;BMP_pressure;BME280_temperature;BME280_humidity;BME280_pressure;Samples;Min_cycle;Max_cycle;Signal;HPM_P1;HPM_P2
2022/10/11 00:00:58;;;;;;;9.15;4.63;;;;;;;3.59;87.89;99893.72;4916294;29;20051;-58
2022/10/11 00:03:24;;;;;;;11.23;5.05;;;;;;;3.57;87.60;99887.84;4916723;29;20506;-58
2022/10/11 00:05:49;;;;;;;7.70;4.55;;;;;;;3.55;87.98;99895.06;4899990;29;20143;-55
2022/10/11 00:08:15;;;;;;;7.72;4.40;;;;;;;3.51;87.92;99891.97;4916407;29;20418;-59
2022/10/11 00:10:59;;;;;;;8.32;4.15;;;;;;;3.48;87.68;99884.47;5068817;28;20395;-57
2022/10/11 00:13:36;;;;;;;7.95;5.05;;;;;;;3.46;88.16;99885.66;5069043;28;20383;-56
2022/10/11 00:16:14;;;;;;;8.75;4.93;;;;;;;3.41;87.88;99887.00;5068729;28;20138;-57
2022/10/11 00:18:51;;;;;;;9.40;5.25;;;;;;;3.37;88.26;99882.28;5068895;28;20927;-56
2022/10/11 00:21:27;;;;;;;9.32;4.95;;;;;;;3.38;88.56;99889.16;5068854;28;20140;-58
2022/10/11 00:24:04;;;;;;;7.53;4.20;;;;;;;3.38;88.65;99878.66;5068622;28;20172;-58
2022/10/11 00:26:41;;;;;;;8.80;5.00;;;;;;;3.34;88.39;99880.84;5068542;28;20643;-57
2022/10/11 00:29:17;;;;;;;8.85;4.25;;;;;;;3.31;88.83;99873.31;5068670;28;20130;-56
2022/10/11 00:31:54;;;;;;;9.68;4.57;;;;;;;3.35;88.79;99877.25;5108027;27;20141;-56
2022/10/11 00:34:31;;;;;;;7.43;5.10;;;;;;;3.38;88.91;99876.03;5068608;28;20131;-57
2022/10/11 00:37:07;;;;;;;7.35;4.53;;;;;;;3.40;88.75;99876.69;5068623;28;20134;-55
2022/10/11 00:39:44;;;;;;;10.15;4.82;;;;;;;3.42;88.66;99877.34;5068744;28;20146;-56
2022/10/11 00:42:21;;;;;;;14.13;4.50;;;;;;;3.41;88.77;99867.81;5129723;27;20135;-56
2022/10/11 00:45:43;;;;;;;11.63;4.85;;;;;;;3.41;88.78;99873.06;5068564;28;20795;-57
2022/10/11 00:49:06;;;;;;;8.13;4.95;;;;;;;3.36;88.30;99865.75;5068602;27;20931;-57
2022/10/11 00:51:52;;;;;;;6.40;4.20;;;;;;;3.28;88.59;99865.00;5068531;28;20401;-58
2022/10/11 00:54:32;;;;;;;8.50;4.72;;;;;;;3.21;88.64;99878.03;5068580;28;20390;-58
2022/10/11 00:57:14;;;;;;;10.18;4.68;;;;;;;3.22;88.59;99873.59;5068659;28;20800;-57
2022/10/11 00:59:52;;;;;;;11.25;5.38;;;;;;;3.23;89.22;99869.97;5068687;28;20508;-57
2022/10/11 01:02:29;;;;;;;10.10;4.90;;;;;;;3.25;88.76;99873.22;5068574;27;20394;-57
2022/10/11 01:05:08;;;;;;;8.68;5.00;;;;;;;3.24;88.34;99872.44;5068519;28;20138;-57
2022/10/11 01:07:46;;;;;;;8.60;4.95;;;;;;;3.24;88.40;99875.03;5068526;28;20500;-56
2022/10/11 01:10:23;;;;;;;7.75;4.95;;;;;;;3.24;87.72;99876.84;5068471;28;20414;-57
2022/10/11 01:13:21;;;;;;;7.82;4.55;;;;;;;3.21;87.96;99870.16;5068659;27;20139;-58
2022/10/11 01:16:21;;;;;;;8.48;5.53;;;;;;;3.19;88.17;99878.19;5109064;27;20186;-58
2022/10/11 01:19:10;;;;;;;11.65;5.30;;;;;;;3.16;88.03;99870.69;5068701;28;20383;-56
2022/10/11 01:21:54;;;;;;;9.27;5.22;;;;;;;3.12;88.43;99866.00;5068601;28;20387;-57
2022/10/11 01:24:59;;;;;;;6.55;4.18;;;;;;;3.22;88.46;99873.59;5068609;28;20792;-56
2022/10/11 01:27:47;;;;;;;7.10;4.80;;;;;;;3.22;88.04;99868.34;5068636;28;20387;-58
2022/10/11 01:30:27;;;;;;;7.03;3.92;;;;;;;3.20;87.95;99873.75;5005513;28;20400;-57
2022/10/11 01:33:45;;;;;;;9.60;4.70;;;;;;;3.23;87.95;99867.34;5068580;27;20927;-56
2022/10/11 01:36:29;;;;;;;9.07;4.68;;;;;;;3.18;87.74;99870.53;5068693;27;20382;-57
2022/10/11 01:39:13;;;;;;;8.35;4.72;;;;;;;3.14;87.72;99864.00;5048623;28;20790;-57
2022/10/11 01:41:54;;;;;;;11.77;4.25;;;;;;;3.13;87.93;99860.56;5068509;27;20904;-57
2022/10/11 01:44:31;;;;;;;7.72;4.93;;;;;;;3.11;88.20;99861.72;5068587;27;20788;-57
2022/10/11 01:47:07;;;;;;;9.00;4.55;;;;;;;3.10;88.26;99867.97;5068621;28;20130;-57
2022/10/11 01:49:44;;;;;;;8.55;4.47;;;;;;;3.08;87.72;99869.94;5068393;28;20138;-57
2022/10/11 01:52:23;;;;;;;10.15;4.90;;;;;;;3.07;88.38;99863.06;5068727;27;20393;-58
2022/10/11 01:55:20;;;;;;;10.07;4.88;;;;;;;3.06;88.00;99869.28;5068667;28;20394;-57
2022/10/11 01:58:41;;;;;;;7.78;4.65;;;;;;;3.02;87.97;99868.84;5129722;27;20124;-57
2022/10/11 02:01:28;;;;;;;7.75;4.97;;;;;;;2.99;88.29;99863.94;5068518;27;20787;-58
2022/10/11 02:04:15;;;;;;;10.48;5.15;;;;;;;2.92;87.95;99857.78;5068669;27;20402;-58
2022/10/11 02:07:06;;;;;;;10.15;4.88;;;;;;;2.96;88.37;99859.88;5068608;28;20927;-57
2022/10/11 02:09:55;;;;;;;8.40;5.20;;;;;;;2.95;88.02;99865.31;5068633;28;20387;-56
2022/10/11 02:12:40;;;;;;;8.35;4.97;;;;;;;2.91;88.55;99857.00;5104698;27;20700;-57
2022/10/11 02:15:18;;;;;;;7.60;4.80;;;;;;;2.91;88.78;99861.38;5068554;28;20958;-58
2022/10/11 02:17:56;;;;;;;10.60;5.85;;;;;;;2.91;88.83;99851.75;5068576;28;20935;-57
2022/10/11 02:20:33;;;;;;;13.77;6.30;;;;;;;2.92;88.45;99856.00;5068449;27;20923;-57
2022/10/11 02:23:13;;;;;;;11.45;5.90;;;;;;;2.91;87.93;99856.16;5109166;27;20124;-56
2022/10/11 02:25:51;;;;;;;14.77;5.75;;;;;;;2.87;87.59;99858.31;5068529;28;20402;-58
2022/10/11 02:28:30;;;;;;;9.55;5.85;;;;;;;2.79;87.86;99850.50;5109378;27;20650;-58
2022/10/11 02:31:09;;;;;;;11.65;6.00;;;;;;;2.82;88.75;99854.59;5068547;28;20399;-58
2022/10/11 02:34:05;;;;;;;9.45;6.28;;;;;;;2.79;88.48;99847.09;5068252;28;20390;-58
2022/10/11 02:36:52;;;;;;;15.50;6.50;;;;;;;2.81;88.26;99861.63;5129406;27;20181;-57
2022/10/11 02:39:35;;;;;;;12.25;5.00;;;;;;;2.84;88.38;99860.47;5068283;27;20931;-57
2022/10/11 02:42:41;;;;;;;10.50;5.32;;;;;;;2.86;88.53;99859.31;5108917;27;20391;-58
2022/10/11 02:45:44;;;;;;;9.75;4.60;;;;;;;2.84;88.04;99858.66;5129292;27;20350;-57
2022/10/11 02:48:22;;;;;;;10.93;5.00;;;;;;;2.85;88.18;99862.09;5068446;28;20394;-58
2022/10/11 02:51:00;;;;;;;8.60;4.38;;;;;;;2.85;88.05;99868.13;5108865;27;20384;-57
2022/10/11 02:53:37;;;;;;;8.15;4.68;;;;;;;2.84;88.06;99861.28;5068316;28;20390;-57
2022/10/11 02:56:14;;;;;;;7.93;4.82;;;;;;;2.84;87.99;99870.94;5068440;28;20149;-57
2022/10/11 02:58:51;;;;;;;10.07;4.97;;;;;;;2.82;88.04;99867.69;5109231;27;20139;-58
2022/10/11 03:01:27;;;;;;;7.10;4.50;;;;;;;2.82;87.80;99872.91;5068539;28;20134;-58
2022/10/11 03:04:04;;;;;;;8.00;4.28;;;;;;;2.82;88.40;99868.50;5068757;28;20145;-57
2022/10/11 03:06:40;;;;;;;7.68;4.50;;;;;;;2.76;88.18;99850.88;5068594;28;20800;-57
2022/10/11 03:09:18;;;;;;;8.98;4.40;;;;;;;2.83;88.36;99856.25;5068626;27;20137;-56
2022/10/11 03:11:55;;;;;;;8.50;4.80;;;;;;;2.83;88.41;99857.03;5068649;28;20394;-57
2022/10/11 03:14:32;;;;;;;8.45;4.80;;;;;;;2.83;88.04;99861.47;5068564;28;20523;-59
2022/10/11 03:17:08;;;;;;;6.38;4.20;;;;;;;2.81;88.07;99866.88;5068547;28;20543;-59
2022/10/11 03:19:46;;;;;;;9.98;4.57;;;;;;;2.80;87.96;99860.00;5068509;27;20134;-58
2022/10/11 03:22:23;;;;;;;8.43;4.60;;;;;;;2.77;87.94;99857.75;5068784;27;20387;-57
2022/10/11 03:25:00;;;;;;;10.70;5.20;;;;;;;2.71;88.16;99850.59;5112494;27;20685;-57
2022/10/11 03:27:38;;;;;;;8.13;4.47;;;;;;;2.70;88.60;99846.34;5069001;28;20415;-56
2022/10/11 03:30:15;;;;;;;8.35;4.85;;;;;;;2.72;88.83;99845.16;5068663;28;21058;-57
2022/10/11 03:32:51;;;;;;;9.18;4.13;;;;;;;2.74;88.24;99852.88;5068760;28;20131;-57
2022/10/11 03:35:29;;;;;;;7.50;4.30;;;;;;;2.70;88.59;99854.19;5109130;27;20132;-58
2022/10/11 03:38:05;;;;;;;7.57;4.55;;;;;;;2.68;88.39;99849.16;5068702;27;20789;-56
2022/10/11 03:40:42;;;;;;;13.68;4.65;;;;;;;2.70;88.17;99846.34;5068650;28;20145;-57
2022/10/11 03:43:19;;;;;;;6.97;4.60;;;;;;;2.63;88.36;99846.22;5068699;28;20391;-58
2022/10/11 03:45:56;;;;;;;6.22;4.18;;;;;;;2.62;88.15;99838.56;5068673;28;20150;-58
2022/10/11 03:48:33;;;;;;;8.88;4.80;;;;;;;2.55;88.05;99840.22;5092970;27;20649;-57
2022/10/11 03:51:11;;;;;;;9.52;5.28;;;;;;;2.57;88.83;99835.66;5109126;27;20133;-57
2022/10/11 03:53:47;;;;;;;7.93;5.30;;;;;;;2.60;88.66;99837.91;5068546;28;20387;-58
2022/10/11 03:56:24;;;;;;;8.82;5.10;;;;;;;2.59;89.04;99837.09;5103886;27;20147;-58
2022/10/11 03:59:01;;;;;;;10.25;5.32;;;;;;;2.61;88.42;99829.88;5129850;27;20544;-58
2022/10/11 04:01:37;;;;;;;11.35;5.25;;;;;;;2.59;88.10;99839.72;5109077;27;20517;-57
2022/10/11 04:04:15;;;;;;;9.35;5.43;;;;;;;2.58;88.43;99835.47;5068721;28;20398;-58
2022/10/11 04:06:52;;;;;;;11.63;5.47;;;;;;;2.66;87.74;99831.97;5068657;27;20138;-57
2022/10/11 04:09:29;;;;;;;10.43;5.55;;;;;;;2.70;87.88;99841.09;5068622;28;20535;-58
2022/10/11 04:12:05;;;;;;;8.60;5.47;;;;;;;2.67;87.47;99833.59;5068801;28;20134;-57
2022/10/11 04:14:42;;;;;;;9.00;5.65;;;;;;;2.66;86.95;99842.44;5068561;27;20138;-57
2022/10/11 04:17:18;;;;;;;10.07;5.63;;;;;;;2.61;86.21;99839.53;5068797;28;20547;-59
2022/10/11 04:19:55;;;;;;;12.30;6.03;;;;;;;2.62;86.70;99841.19;5068610;28;20141;-56
2022/10/11 04:22:32;;;;;;;10.50;5.10;;;;;;;2.62;86.50;99841.19;5068614;28;20138;-58
2022/10/11 04:25:09;;;;;;;10.77;6.10;;;;;;;2.64;86.30;99844.41;5068630;28;20531;-57
2022/10/11 04:27:45;;;;;;;14.75;6.30;;;;;;;2.69;86.00;99847.34;5068634;28;20153;-58
2022/10/11 04:30:22;;;;;;;12.50;6.32;;;;;;;2.75;86.53;99843.19;5068627;28;20142;-56
2022/10/11 04:32:58;;;;;;;10.57;5.85;;;;;;;2.80;86.08;99836.47;5068370;28;20153;-59
2022/10/11 04:35:35;;;;;;;8.68;5.15;;;;;;;2.80;86.02;99839.06;5068455;28;20141;-58
2022/10/11 04:38:11;;;;;;;10.45;6.55;;;;;;;2.85;85.86;99838.53;5068563;28;20146;-58
2022/10/11 04:40:48;;;;;;;9.20;6.18;;;;;;;2.91;85.52;99840.44;5104486;27;20139;-58
2022/10/11 04:43:24;;;;;;;8.50;5.20;;;;;;;2.93;85.43;99844.50;5068552;28;20098;-59
2022/10/11 04:46:02;;;;;;;9.65;5.13;;;;;;;2.95;85.18;99839.91;5068070;28;20631;-59
2022/10/11 04:48:39;;;;;;;9.80;5.45;;;;;;;3.00;85.04;99834.16;5068314;28;20446;-60
2022/10/11 04:51:17;;;;;;;8.48;5.32;;;;;;;3.03;84.29;99838.22;5067988;28;20131;-57
2022/10/11 04:53:54;;;;;;;9.45;5.63;;;;;;;3.06;84.45;99843.09;5068623;28;20386;-58
2022/10/11 04:56:31;;;;;;;9.90;5.43;;;;;;;3.11;84.35;99836.34;5108697;27;20147;-58
2022/10/11 04:59:07;;;;;;;8.88;5.03;;;;;;;3.13;84.34;99831.75;5067960;27;20539;-59
2022/10/11 05:01:44;;;;;;;8.68;5.07;;;;;;;3.21;84.35;99838.72;5068402;28;20134;-59
2022/10/11 05:05:32;;;;;;;9.57;5.47;;;;;;;3.27;83.83;99845.06;5068390;28;20387;-59
2022/10/11 05:08:08;;;;;;;16.17;5.28;;;;;;;3.33;83.22;99839.91;5068558;28;20135;-58
2022/10/11 05:10:59;;;;;;;8.77;4.70;;;;;;;3.32;83.14;99835.63;5068566;28;20145;-62
2022/10/11 05:13:36;;;;;;;10.13;5.32;;;;;;;3.33;83.57;99832.06;5068499;28;20397;-61
2022/10/11 05:16:13;;;;;;;8.88;5.25;;;;;;;3.39;83.15;99839.19;5068132;27;20135;-57
2022/10/11 05:18:51;;;;;;;11.85;5.18;;;;;;;3.41;83.60;99847.69;5068507;28;20382;-60
2022/10/11 05:21:28;;;;;;;8.63;5.20;;;;;;;3.45;83.64;99836.84;5068444;28;20130;-59
2022/10/11 05:24:06;;;;;;;6.82;4.65;;;;;;;3.52;83.50;99841.19;5068665;27;20792;-60
2022/10/11 05:26:42;;;;;;;9.18;4.82;;;;;;;3.56;82.77;99844.25;5068491;28;20141;-61
2022/10/11 05:29:30;;;;;;;7.38;4.82;;;;;;;3.58;83.65;99832.59;5108885;27;20804;-59
2022/10/11 05:32:07;;;;;;;6.60;4.50;;;;;;;3.58;83.09;99829.97;5068284;28;20134;-61
2022/10/11 05:34:44;;;;;;;6.85;4.85;;;;;;;3.67;83.61;99830.69;5068432;28;20134;-60
2022/10/11 05:37:20;;;;;;;8.57;5.18;;;;;;;3.71;83.34;99826.72;5068079;28;20139;-59
2022/10/11 05:39:57;;;;;;;8.38;5.00;;;;;;;3.76;83.02;99828.78;5088438;27;20137;-60
2022/10/11 05:42:33;;;;;;;8.63;5.35;;;;;;;3.85;83.14;99827.69;5068439;27;20138;-60
2022/10/11 05:45:10;;;;;;;8.52;5.47;;;;;;;3.90;82.90;99832.41;5113499;27;20128;-59
2022/10/11 05:47:58;;;;;;;8.75;4.85;;;;;;;3.97;83.27;99831.50;4988835;28;20399;-61
2022/10/11 05:50:35;;;;;;;8.98;4.65;;;;;;;4.03;82.80;99829.91;5067948;27;20145;-60
2022/10/11 05:53:12;;;;;;;12.00;5.68;;;;;;;4.15;82.93;99817.97;5068462;28;20543;-61
2022/10/11 05:55:48;;;;;;;8.35;4.95;;;;;;;4.17;82.95;99823.84;5118803;27;20131;-61
2022/10/11 05:58:25;;;;;;;8.35;5.10;;;;;;;4.20;83.15;99823.47;5068195;28;20142;-60
2022/10/11 06:01:02;;;;;;;13.00;5.13;;;;;;;4.26;82.53;99827.97;5065608;28;20555;-60
2022/10/11 06:03:38;;;;;;;9.68;5.60;;;;;;;4.30;82.95;99820.56;5066405;28;20221;-60
2022/10/11 06:06:15;;;;;;;9.65;5.25;;;;;;;4.38;82.73;99824.88;4987546;28;20631;-58
2022/10/11 06:08:53;;;;;;;10.10;5.13;;;;;;;4.49;82.58;99824.38;5066152;28;20392;-61
2022/10/11 06:11:30;;;;;;;8.63;5.22;;;;;;;4.55;82.34;99827.06;5067023;28;20675;-59
2022/10/11 06:14:20;;;;;;;9.63;5.18;;;;;;;4.63;82.20;99823.50;5087490;27;20406;-58
2022/10/11 06:17:27;;;;;;;13.15;5.65;;;;;;;4.75;82.36;99815.94;5103119;27;20970;-58
2022/10/11 06:20:25;;;;;;;9.52;4.60;;;;;;;4.83;80.03;99820.25;5087269;27;20402;-60
2022/10/11 06:23:15;;;;;;;11.32;5.47;;;;;;;4.91;80.05;99814.84;5088418;27;20753;-60
2022/10/11 06:26:11;;;;;;;8.10;4.63;;;;;;;5.00;80.66;99813.72;5133913;27;20722;-60
2022/10/11 06:29:21;;;;;;;7.82;5.10;;;;;;;5.12;80.63;99814.03;5129615;27;20427;-58
2022/10/11 06:32:12;;;;;;;10.85;4.93;;;;;;;5.20;79.94;99819.91;5119798;27;20989;-57
2022/10/11 06:35:05;;;;;;;9.35;5.57;;;;;;;5.35;78.32;99819.81;5138233;27;20724;-60
2022/10/11 06:38:05;;;;;;;13.63;5.47;;;;;;;5.44;77.63;99820.47;5128918;27;20449;-60
2022/10/11 06:40:54;;;;;;;10.48;5.50;;;;;;;5.54;77.76;99823.59;5024908;27;20401;-60
2022/10/11 06:43:49;;;;;;;8.50;5.35;;;;;;;5.62;76.58;99822.63;5149164;27;20130;-59
2022/10/11 06:46:42;;;;;;;10.15;5.40;;;;;;;5.70;76.35;99819.81;5088527;27;20401;-59
2022/10/11 06:49:36;;;;;;;10.77;5.45;;;;;;;5.78;76.16;99824.13;5188895;27;20519;-59
2022/10/11 06:52:31;;;;;;;12.38;5.55;;;;;;;5.80;76.26;99807.13;5149752;27;20426;-59
2022/10/11 06:55:25;;;;;;;10.10;5.00;;;;;;;5.94;75.06;99822.97;5184540;27;20396;-60
2022/10/11 06:58:31;;;;;;;10.27;4.85;;;;;;;5.98;75.16;99816.34;5125868;27;20430;-61
2022/10/11 07:01:23;;;;;;;15.82;5.00;;;;;;;6.07;74.50;99815.97;5113117;27;20425;-61
2022/10/11 07:04:14;;;;;;;8.90;4.88;;;;;;;6.14;75.66;99814.16;5128518;27;20353;-59
2022/10/11 07:07:05;;;;;;;9.15;5.85;;;;;;;6.22;75.30;99817.63;5088124;27;20395;-61
2022/10/11 07:09:56;;;;;;;9.23;5.32;;;;;;;6.27;74.63;99813.41;5128307;27;20349;-61
2022/10/11 07:12:50;;;;;;;13.57;5.88;;;;;;;6.35;74.58;99809.75;5149144;27;20929;-59
2022/10/11 07:15:41;;;;;;;8.90;4.80;;;;;;;6.41;74.56;99811.59;5128886;27;20353;-61
2022/10/11 07:18:36;;;;;;;8.18;4.57;;;;;;;6.47;74.41;99802.91;5189889;27;20445;-61
2022/10/11 07:21:28;;;;;;;10.60;4.20;;;;;;;6.53;73.06;99804.75;5127999;27;20341;-60
2022/10/11 07:24:30;;;;;;;7.43;4.18;;;;;;;6.69;71.74;99815.91;5129201;27;20436;-60
2022/10/11 07:27:23;;;;;;;8.40;4.25;;;;;;;6.76;71.35;99806.16;5086994;27;20403;-59
2022/10/11 07:30:30;;;;;;;6.47;3.97;;;;;;;6.87;72.05;99817.94;5129153;27;20439;-60
2022/10/11 07:33:29;;;;;;;5.55;3.58;;;;;;;6.98;70.62;99822.59;5129796;27;20556;-59
2022/10/11 07:36:22;;;;;;;5.65;3.25;;;;;;;7.05;69.45;99807.59;5101322;27;20945;-59
2022/10/11 07:38:58;;;;;;;6.93;3.40;;;;;;;7.10;69.75;99813.06;4525075;27;17816893;-59
2022/10/11 07:41:51;;;;;;;7.18;3.20;;;;;;;7.19;68.52;99811.03;5088836;27;20414;-59
2022/10/11 07:44:45;;;;;;;3.05;2.65;;;;;;;7.25;67.38;99816.28;5188772;27;20515;-61
2022/10/11 07:47:36;;;;;;;5.07;2.20;;;;;;;7.35;65.77;99815.06;5107429;27;20148;-61
2022/10/11 07:50:28;;;;;;;4.00;2.33;;;;;;;7.40;65.57;99809.97;5125676;27;20398;-59
2022/10/11 07:53:25;;;;;;;2.67;2.08;;;;;;;7.43;65.19;99806.94;5109375;27;20343;-58
2022/10/11 07:56:27;;;;;;;3.38;2.30;;;;;;;7.50;64.86;99813.81;5128609;27;20359;-59
2022/10/11 07:59:30;;;;;;;4.75;2.45;;;;;;;7.56;64.71;99806.06;5131369;27;20424;-59
2022/10/11 08:02:21;;;;;;;4.28;2.28;;;;;;;7.60;64.71;99800.19;5087303;27;20763;-59
2022/10/11 08:05:18;;;;;;;3.15;2.30;;;;;;;7.66;63.91;99799.34;5103324;27;20830;-59
2022/10/11 08:08:28;;;;;;;6.93;2.33;;;;;;;7.67;64.15;99785.13;5125681;27;20437;-59
2022/10/11 08:11:40;;;;;;;6.53;2.80;;;;;;;7.77;64.40;99790.00;5088240;27;20978;-60
2022/10/11 08:14:40;;;;;;;4.68;3.10;;;;;;;7.78;65.22;99788.97;5142646;27;20449;-57
2022/10/11 08:17:30;;;;;;;7.88;3.75;;;;;;;7.83;64.12;99781.22;5118794;27;20426;-60
2022/10/11 08:20:40;;;;;;;4.45;2.80;;;;;;;7.90;63.36;99781.19;5028663;27;20143;-60
2022/10/11 08:23:38;;;;;;;3.35;1.90;;;;;;;7.96;63.26;99793.56;5103140;27;20541;-60
2022/10/11 08:26:29;;;;;;;2.35;2.00;;;;;;;7.99;63.23;99776.50;5088280;27;20756;-59
2022/10/11 08:29:23;;;;;;;4.05;2.00;;;;;;;8.00;62.96;99778.94;5127821;27;20873;-61
2022/10/11 08:32:24;;;;;;;2.97;1.90;;;;;;;8.08;62.27;99775.22;5086787;27;20888;-59
2022/10/11 08:35:18;;;;;;;3.13;2.00;;;;;;;8.12;62.06;99773.78;5105834;27;20907;-59
2022/10/11 08:38:10;;;;;;;2.95;1.80;;;;;;;8.18;61.63;99775.59;5089671;27;20371;-59
2022/10/11 08:41:52;;;;;;;2.20;1.70;;;;;;;8.26;61.36;99772.66;5117671;27;20456;-60
2022/10/11 08:45:09;;;;;;;2.42;1.90;;;;;;;8.31;60.90;99770.22;5113285;27;20449;-59
2022/10/11 08:48:16;;;;;;;2.90;1.60;;;;;;;8.32;60.59;99765.72;5149263;27;20657;-59
2022/10/11 08:51:22;;;;;;;3.45;1.98;;;;;;;8.36;59.51;99761.66;5088501;27;20446;-61
2022/10/11 08:54:13;;;;;;;3.70;1.85;;;;;;;8.34;59.69;99750.50;5088149;27;20406;-59
2022/10/11 08:57:05;;;;;;;3.83;2.00;;;;;;;8.37;59.69;99750.06;5059006;27;20382;-58
2022/10/11 08:59:58;;;;;;;5.63;2.30;;;;;;;8.45;59.37;99749.84;5088174;27;20406;-58
2022/10/11 09:03:15;;;;;;;4.88;2.08;;;;;;;8.49;58.99;99737.81;5107452;27;20758;-59
2022/10/11 09:06:12;;;;;;;2.78;1.80;;;;;;;8.45;58.63;99736.63;5066624;28;20753;-61
2022/10/11 09:09:05;;;;;;;3.17;1.88;;;;;;;8.50;58.30;99738.59;5169931;27;19923;-60
2022/10/11 09:12:14;;;;;;;3.42;2.00;;;;;;;8.54;57.72;99729.25;5064941;28;20398;-59
2022/10/11 09:15:29;;;;;;;5.05;2.03;;;;;;;8.58;58.23;99733.06;5107338;27;20392;-60
2022/10/11 09:18:35;;;;;;;4.25;2.10;;;;;;;8.63;58.60;99739.31;5067602;28;20397;-59
2022/10/11 09:21:42;;;;;;;3.97;2.15;;;;;;;8.64;58.35;99729.56;5128858;27;20865;-60
2022/10/11 09:24:33;;;;;;;4.07;1.90;;;;;;;8.67;57.02;99721.19;5086295;28;20051;-59
2022/10/11 09:27:19;;;;;;;3.28;1.90;;;;;;;8.73;56.34;99719.53;5127181;28;20043;-59
2022/10/11 09:29:55;;;;;;;3.15;1.70;;;;;;;8.71;55.35;99713.66;5127655;28;20071;-60
2022/10/11 09:32:27;;;;;;;2.65;2.30;;;;;;;8.76;55.92;99719.09;5125919;28;20171;-59
2022/10/11 09:35:01;;;;;;;3.85;1.95;;;;;;;8.74;55.16;99713.22;5125791;28;20043;-59
2022/10/11 09:37:28;;;;;;;1.98;1.70;;;;;;;8.83;54.66;99717.22;5126722;28;20062;-61
2022/10/11 09:40:02;;;;;;;5.00;1.90;;;;;;;8.84;55.06;99710.88;5126845;28;20415;-60
2022/10/11 09:42:29;;;;;;;2.50;1.77;;;;;;;8.87;54.36;99718.38;5128590;27;20039;-60
2022/10/11 09:44:56;;;;;;;2.58;2.00;;;;;;;8.92;54.20;99713.25;5127891;28;20055;-60
2022/10/11 09:47:24;;;;;;;6.13;2.47;;;;;;;8.94;53.19;99710.38;5127734;28;20035;-60
2022/10/11 09:49:57;;;;;;;2.55;2.00;;;;;;;8.96;52.33;99700.41;5125439;28;20104;-59
2022/10/11 09:52:23;;;;;;;2.10;1.90;;;;;;;8.95;51.06;99701.44;5127327;28;20027;-61
2022/10/11 09:54:52;;;;;;;2.92;1.90;;;;;;;8.91;51.78;99701.03;5126382;28;20091;-60
2022/10/11 09:57:27;;;;;;;2.10;1.90;;;;;;;8.96;53.12;99695.13;5126662;28;20476;-58
2022/10/11 10:00:20;;;;;;;5.82;2.10;;;;;;;9.01;52.39;99696.06;5127775;27;20047;-60
2022/10/11 10:02:56;;;;;;;3.30;1.65;;;;;;;9.10;50.28;99699.25;5110245;28;20129;-61
2022/10/11 10:05:32;;;;;;;4.63;1.92;;;;;;;9.14;47.50;99689.81;5126517;28;20126;-61
2022/10/11 10:08:28;;;;;;;2.42;1.52;;;;;;;9.17;49.47;99699.97;5127782;28;20138;-60
2022/10/11 10:10:58;;;;;;;3.38;1.73;;;;;;;9.20;49.84;99693.44;5127706;28;20071;-61
2022/10/11 10:13:28;;;;;;;2.55;1.63;;;;;;;9.24;50.57;99691.97;5126023;28;20048;-62
2022/10/11 10:16:00;;;;;;;2.70;1.90;;;;;;;9.23;49.06;99677.91;5126814;28;20040;-61
2022/10/11 10:18:33;;;;;;;2.63;1.65;;;;;;;9.25;48.02;99675.88;5126588;28;20527;-60
2022/10/11 10:20:59;;;;;;;2.03;1.65;;;;;;;9.28;48.88;99671.97;5125198;28;20048;-62
2022/10/11 10:23:31;;;;;;;2.78;1.70;;;;;;;9.31;48.04;99676.81;5127810;28;20056;-61
2022/10/11 10:26:11;;;;;;;2.00;1.30;;;;;;;9.35;46.03;99672.69;5126109;28;20084;-61
2022/10/11 10:28:37;;;;;;;2.92;1.65;;;;;;;9.37;46.01;99667.19;5109156;28;20482;-63
2022/10/11 10:31:03;;;;;;;3.78;1.77;;;;;;;9.32;45.80;99663.38;5103114;28;20131;-62
2022/10/11 10:33:33;;;;;;;2.90;1.70;;;;;;;9.32;46.74;99666.03;5111994;28;20043;-62
2022/10/11 10:36:04;;;;;;;4.78;1.80;;;;;;;9.38;47.17;99653.72;5110919;28;20047;-62
2022/10/11 10:38:39;;;;;;;3.13;1.90;;;;;;;9.40;47.09;99654.31;5111902;28;20043;-63
2022/10/11 10:41:09;;;;;;;3.47;1.55;;;;;;;9.45;47.69;99648.38;5113604;28;20446;-61
2022/10/11 10:43:37;;;;;;;2.58;1.65;;;;;;;9.49;47.77;99650.34;5094399;28;20069;-60
2022/10/11 10:46:17;;;;;;;3.30;2.30;;;;;;;9.50;49.44;99648.50;5110876;28;20067;-61
2022/10/11 10:48:56;;;;;;;5.95;2.53;;;;;;;9.58;49.22;99644.75;5111604;28;20119;-61
2022/10/11 10:52:06;;;;;;;5.78;2.00;;;;;;;9.64;49.27;99639.34;5110824;28;20185;-63
2022/10/11 10:54:59;;;;;;;4.90;2.58;;;;;;;9.68;49.54;99648.47;5074545;28;20048;-62
2022/10/11 10:57:28;;;;;;;4.03;2.30;;;;;;;9.73;49.90;99643.28;5113319;28;20529;-60
2022/10/11 11:00:11;;;;;;;3.03;2.28;;;;;;;9.77;49.75;99639.19;5113322;28;20096;-61
2022/10/11 11:03:02;;;;;;;3.03;2.20;;;;;;;9.79;49.75;99633.63;5111261;28;20130;-61
2022/10/11 11:05:30;;;;;;;;;;;;;;;9.81;49.78;99634.22;5111693;28;20104;-62
2022/10/11 11:08:30;;;;;;;5.63;3.00;;;;;;;9.81;49.98;99628.94;5110667;28;20061;-60
2022/10/11 11:10:59;;;;;;;3.50;2.40;;;;;;;9.82;49.15;99633.19;5111772;28;20088;-62
2022/10/11 11:13:34;;;;;;;4.57;2.70;;;;;;;9.85;50.70;99629.28;5111248;28;20317;-61
2022/10/11 11:16:13;;;;;;;4.90;2.92;;;;;;;9.84;49.76;99615.25;5111688;28;20050;-61
2022/10/11 11:19:07;;;;;;;5.03;2.80;;;;;;;9.84;50.54;99611.78;5093140;28;20496;-62
2022/10/11 11:21:51;;;;;;;5.55;2.50;;;;;;;9.86;50.59;99610.53;5112090;28;20067;-62
2022/10/11 11:24:37;;;;;;;6.10;2.63;;;;;;;9.90;50.50;99609.03;5111395;28;20084;-58
2022/10/11 11:27:08;;;;;;;4.65;2.40;;;;;;;9.92;49.85;99600.88;5109896;28;20509;-59
2022/10/11 11:29:50;;;;;;;5.60;2.53;;;;;;;9.96;49.58;99609.97;5111479;28;20420;-59
2022/10/11 11:32:54;;;;;;;3.45;2.30;;;;;;;9.99;49.72;99599.72;5111400;28;20052;-60
2022/10/11 11:35:41;;;;;;;4.05;2.53;;;;;;;9.98;49.46;99592.03;5092521;28;20067;-59
2022/10/11 11:38:17;;;;;;;3.58;2.17;;;;;;;10.00;49.44;99592.59;5111371;28;20050;-60
2022/10/11 11:40:49;;;;;;;4.43;2.47;;;;;;;10.02;49.46;99591.31;5110999;28;20509;-60
2022/10/11 11:43:36;;;;;;;3.13;2.40;;;;;;;10.02;48.01;99586.03;5108257;28;20065;-59
2022/10/11 11:46:14;;;;;;;2.72;2.17;;;;;;;10.00;48.49;99579.38;5110992;28;20067;-59
2022/10/11 11:48:42;;;;;;;4.60;2.45;;;;;;;10.03;48.13;99581.56;5111117;28;20040;-60
2022/10/11 11:51:31;;;;;;;4.72;2.60;;;;;;;10.04;48.86;99579.72;5111060;28;20055;-60
2022/10/11 11:54:21;;;;;;;3.22;2.28;;;;;;;10.05;48.98;99578.66;5111741;28;20046;-58
2022/10/11 11:56:56;;;;;;;5.50;2.63;;;;;;;10.05;48.27;99579.47;5111121;28;20424;-60
2022/10/11 11:59:44;;;;;;;5.97;2.70;;;;;;;10.09;48.37;99580.63;5109663;28;20456;-60
2022/10/11 12:02:27;;;;;;;4.38;2.45;;;;;;;10.15;48.92;99570.97;5111500;28;20044;-61
2022/10/11 12:04:53;;;;;;;5.28;2.47;;;;;;;10.15;48.31;99570.97;5111672;28;20031;-60
2022/10/11 12:07:21;;;;;;;8.73;4.57;;;;;;;10.16;48.27;99569.94;5110858;28;20050;-60
2022/10/11 12:10:25;;;;;;;5.78;2.88;;;;;;;10.16;47.47;99559.31;5110825;28;20058;-61
2022/10/11 12:13:22;;;;;;;5.40;2.47;;;;;;;10.17;47.33;99560.94;5111043;28;20055;-60
2022/10/11 12:16:03;;;;;;;5.70;2.42;;;;;;;10.15;47.31;99558.53;5111688;28;20416;-58
2022/10/11 12:18:30;;;;;;;6.35;2.72;;;;;;;10.15;47.67;99569.13;5111286;28;20055;-56
2022/10/11 12:21:02;;;;;;;5.57;2.30;;;;;;;10.16;47.42;99557.47;5110046;28;20154;-56
2022/10/11 12:23:28;;;;;;;4.20;2.30;;;;;;;10.17;48.18;99553.78;5111306;28;20063;-55
2022/10/11 12:26:15;;;;;;;4.05;2.40;;;;;;;10.19;48.50;99554.38;5111547;28;20569;-56
2022/10/11 12:28:41;;;;;;;3.88;2.55;;;;;;;10.19;48.05;99553.56;5111509;28;20043;-55
2022/10/11 12:31:29;;;;;;;5.00;2.47;;;;;;;10.21;48.04;99549.66;5110000;28;20054;-61
2022/10/11 12:34:17;;;;;;;4.53;2.42;;;;;;;10.20;48.12;99545.38;5109535;28;20040;-55
2022/10/11 12:36:48;;;;;;;3.60;2.35;;;;;;;10.18;48.14;99542.16;5109196;28;20044;-56
2022/10/11 12:39:20;;;;;;;2.72;2.10;;;;;;;10.18;48.28;99533.44;5108875;28;20614;-55
2022/10/11 12:41:48;;;;;;;5.10;2.50;;;;;;;10.18;48.48;99539.53;5110198;28;20075;-57
2022/10/11 12:44:17;;;;;;;3.00;2.20;;;;;;;10.15;48.82;99537.34;5109425;28;20492;-55
2022/10/11 12:46:49;;;;;;;3.60;2.35;;;;;;;10.13;49.49;99534.09;5110500;28;20512;-59
2022/10/11 12:49:17;;;;;;;3.13;2.30;;;;;;;10.12;49.49;99531.69;5111109;28;20096;-61
2022/10/11 12:52:16;;;;;;;4.00;2.17;;;;;;;10.09;49.31;99529.47;5110277;28;20047;-58
2022/10/11 12:55:25;;;;;;;3.20;2.28;;;;;;;10.05;49.28;99521.19;5110724;28;20045;-58
2022/10/11 12:58:29;;;;;;;7.93;2.60;;;;;;;10.06;49.40;99522.00;5109312;28;20131;-57